Terminal Aerodrome Forecast
Issued by NWS

Home | Current Version | Previous Version | Text Only | Print | Product List | Glossary On
Versions: 1 2 3 4 5 6 7 8 9 10 11 12 13 14 15 16 17 18 19 20 21 22 23 24 25
000
FTUS41 KBUF 300300 AAA
TAFJHW
TAF AMD
KJHW 300321Z 3003/3024 20016G21KT P6SM VCSH OVC040 WS020/21040KT
     FM300500 20017G25KT 5SM BR VCSH OVC035
     FM300700 21015G23KT 2SM -SHSN OVC015
     FM301400 27015G23KT 6SM BR VCSH OVC020
      AMD LTD TO CLD VIS AND WIND=

USA.gov is the U.S. government's official web portal to all federal, state and local government web resources and services.